sensor_id;sensor_type;location;lat;lon;timestamp;pressure;altitude;pressure_sealevel;temperature;humidity
65329;BME280;51941;52.210;5.158;2023-02-13T00:00:06;103721.81;;;8.01;72.92
65329;BME280;51941;52.210;5.158;2023-02-13T00:02:34;103752.59;;;8.20;72.96
65329;BME280;51941;52.210;5.158;2023-02-13T00:05:00;103748.13;;;8.21;72.97
65329;BME280;51941;52.210;5.158;2023-02-13T00:07:27;103752.84;;;8.17;73.23
65329;BME280;51941;52.210;5.158;2023-02-13T00:09:55;103747.19;;;8.12;73.46
65329;BME280;51941;52.210;5.158;2023-02-13T00:12:22;103747.88;;;8.14;73.32
65329;BME280;51941;52.210;5.158;2023-02-13T00:14:49;103745.91;;;8.16;73.27
65329;BME280;51941;52.210;5.158;2023-02-13T00:17:16;103740.09;;;8.13;73.30
65329;BME280;51941;52.210;5.158;2023-02-13T00:19:43;103741.09;;;8.12;73.52
65329;BME280;51941;52.210;5.158;2023-02-13T00:22:09;103668.59;;;7.69;73.31
65329;BME280;51941;52.210;5.158;2023-02-13T00:24:36;103718.88;;;8.04;73.82
65329;BME280;51941;52.210;5.158;2023-02-13T00:27:04;103732.09;;;8.04;73.83
65329;BME280;51941;52.210;5.158;2023-02-13T00:29:32;103729.00;;;8.09;73.70
65329;BME280;51941;52.210;5.158;2023-02-13T00:31:59;103731.50;;;8.11;73.55
65329;BME280;51941;52.210;5.158;2023-02-13T00:34:26;103724.84;;;8.06;73.62
65329;BME280;51941;52.210;5.158;2023-02-13T00:36:53;103728.59;;;8.04;73.47
65329;BME280;51941;52.210;5.158;2023-02-13T00:39:20;103727.63;;;8.05;73.66
65329;BME280;51941;52.210;5.158;2023-02-13T00:41:47;103730.09;;;8.06;73.61
65329;BME280;51941;52.210;5.158;2023-02-13T00:44:15;103736.38;;;8.05;73.71
65329;BME280;51941;52.210;5.158;2023-02-13T00:46:42;103732.75;;;8.06;73.67
65329;BME280;51941;52.210;5.158;2023-02-13T00:49:09;103723.88;;;8.07;73.87
65329;BME280;51941;52.210;5.158;2023-02-13T00:51:36;103708.75;;;8.00;73.92
65329;BME280;51941;52.210;5.158;2023-02-13T00:54:03;103723.59;;;8.11;73.69
65329;BME280;51941;52.210;5.158;2023-02-13T00:56:30;103725.38;;;8.10;73.91
65329;BME280;51941;52.210;5.158;2023-02-13T00:58:56;103718.44;;;8.09;73.88
65329;BME280;51941;52.210;5.158;2023-02-13T01:01:25;103714.00;;;8.10;73.80
65329;BME280;51941;52.210;5.158;2023-02-13T01:03:52;103712.78;;;8.04;74.04
65329;BME280;51941;52.210;5.158;2023-02-13T01:06:20;103694.09;;;7.88;73.88
65329;BME280;51941;52.210;5.158;2023-02-13T01:08:46;103720.56;;;8.05;73.77
65329;BME280;51941;52.210;5.158;2023-02-13T01:11:14;103710.28;;;8.02;73.83
65329;BME280;51941;52.210;5.158;2023-02-13T01:13:43;103720.97;;;8.01;73.78
65329;BME280;51941;52.210;5.158;2023-02-13T01:16:10;103720.97;;;8.01;73.76
65329;BME280;51941;52.210;5.158;2023-02-13T01:18:38;103722.63;;;8.02;74.03
65329;BME280;51941;52.210;5.158;2023-02-13T01:21:07;103723.47;;;8.02;73.85
65329;BME280;51941;52.210;5.158;2023-02-13T01:23:35;103711.13;;;8.03;73.76
65329;BME280;51941;52.210;5.158;2023-02-13T01:26:03;103701.28;;;7.95;74.06
65329;BME280;51941;52.210;5.158;2023-02-13T01:28:30;103717.22;;;8.03;74.11
65329;BME280;51941;52.210;5.158;2023-02-13T01:30:57;103721.09;;;7.99;74.18
65329;BME280;51941;52.210;5.158;2023-02-13T01:33:25;103705.84;;;8.03;74.21
65329;BME280;51941;52.210;5.158;2023-02-13T01:35:54;103714.88;;;8.00;74.38
65329;BME280;51941;52.210;5.158;2023-02-13T01:38:21;103710.28;;;8.02;74.49
65329;BME280;51941;52.210;5.158;2023-02-13T01:40:51;103707.50;;;8.04;74.25
65329;BME280;51941;52.210;5.158;2023-02-13T01:43:19;103710.28;;;8.02;74.19
65329;BME280;51941;52.210;5.158;2023-02-13T01:45:50;103668.03;;;7.75;74.31
65329;BME280;51941;52.210;5.158;2023-02-13T01:48:22;103723.59;;;8.01;74.24
65329;BME280;51941;52.210;5.158;2023-02-13T01:50:52;103713.88;;;8.01;74.04
65329;BME280;51941;52.210;5.158;2023-02-13T01:53:27;103703.63;;;7.98;73.77
65329;BME280;51941;52.210;5.158;2023-02-13T01:56:00;103702.94;;;7.96;73.94
65329;BME280;51941;52.210;5.158;2023-02-13T01:58:31;103696.00;;;7.95;73.88
65329;BME280;51941;52.210;5.158;2023-02-13T02:01:00;103703.22;;;7.93;73.84
65329;BME280;51941;52.210;5.158;2023-02-13T02:03:32;103704.06;;;7.94;74.00
65329;BME280;51941;52.210;5.158;2023-02-13T02:06:06;103680.22;;;7.86;74.00
65329;BME280;51941;52.210;5.158;2023-02-13T02:08:38;103698.53;;;7.87;74.16
65329;BME280;51941;52.210;5.158;2023-02-13T02:11:10;103697.00;;;7.85;74.05
65329;BME280;51941;52.210;5.158;2023-02-13T02:13:41;103700.63;;;7.84;74.23
65329;BME280;51941;52.210;5.158;2023-02-13T02:16:09;103701.19;;;7.78;74.50
65329;BME280;51941;52.210;5.158;2023-02-13T02:18:36;103702.56;;;7.82;74.58
65329;BME280;51941;52.210;5.158;2023-02-13T02:27:18;103705.50;;;7.79;74.62
65329;BME280;51941;52.210;5.158;2023-02-13T02:33:17;103708.41;;;7.76;74.40
65329;BME280;51941;52.210;5.158;2023-02-13T02:36:00;103693.00;;;7.71;74.34
65329;BME280;51941;52.210;5.158;2023-02-13T02:38:43;103700.75;;;7.73;74.57
65329;BME280;51941;52.210;5.158;2023-02-13T02:41:20;103686.22;;;7.68;74.62
65329;BME280;51941;52.210;5.158;2023-02-13T02:44:12;103656.41;;;7.49;75.05
65329;BME280;51941;52.210;5.158;2023-02-13T02:46:52;103673.88;;;7.59;75.28
65329;BME280;51941;52.210;5.158;2023-02-13T02:49:40;103685.66;;;7.65;75.42
65329;BME280;51941;52.210;5.158;2023-02-13T02:52:34;103690.94;;;7.65;75.28
65329;BME280;51941;52.210;5.158;2023-02-13T02:55:12;103689.81;;;7.67;75.24
65329;BME280;51941;52.210;5.158;2023-02-13T02:57:55;103680.25;;;7.66;75.06
65329;BME280;51941;52.210;5.158;2023-02-13T03:00:41;103684.69;;;7.66;75.30
65329;BME280;51941;52.210;5.158;2023-02-13T03:03:26;103693.44;;;7.66;75.01
65329;BME280;51941;52.210;5.158;2023-02-13T03:06:15;103693.84;;;7.62;75.34
65329;BME280;51941;52.210;5.158;2023-02-13T03:08:46;103683.59;;;7.59;75.30
65329;BME280;51941;52.210;5.158;2023-02-13T03:11:35;103680.13;;;7.58;75.02
65329;BME280;51941;52.210;5.158;2023-02-13T03:14:20;103680.41;;;7.55;75.32
65329;BME280;51941;52.210;5.158;2023-02-13T03:16:50;103682.50;;;7.61;75.17
65329;BME280;51941;52.210;5.158;2023-02-13T03:19:43;103682.31;;;7.63;75.14
65329;BME280;51941;52.210;5.158;2023-02-13T03:22:37;103682.75;;;7.58;74.89
65329;BME280;51941;52.210;5.158;2023-02-13T03:25:11;103680.00;;;7.60;74.90
65329;BME280;51941;52.210;5.158;2023-02-13T03:27:49;103695.69;;;7.61;75.10
65329;BME280;51941;52.210;5.158;2023-02-13T03:30:42;103688.59;;;7.52;75.45
65329;BME280;51941;52.210;5.158;2023-02-13T03:33:22;103683.03;;;7.55;75.45
65329;BME280;51941;52.210;5.158;2023-02-13T03:36:00;103647.81;;;7.27;75.49
65329;BME280;51941;52.210;5.158;2023-02-13T03:38:52;103684.00;;;7.54;75.52
65329;BME280;51941;52.210;5.158;2023-02-13T03:41:24;103685.53;;;7.57;75.40
65329;BME280;51941;52.210;5.158;2023-02-13T03:44:02;103679.28;;;7.58;75.50
65329;BME280;51941;52.210;5.158;2023-02-13T03:46:34;103682.63;;;7.60;75.46
65329;BME280;51941;52.210;5.158;2023-02-13T03:49:03;103681.66;;;7.61;75.60
65329;BME280;51941;52.210;5.158;2023-02-13T03:51:52;103676.66;;;7.58;75.57
65329;BME280;51941;52.210;5.158;2023-02-13T03:54:27;103676.66;;;7.58;75.87
65329;BME280;51941;52.210;5.158;2023-02-13T03:57:19;103668.06;;;7.56;75.88
65329;BME280;51941;52.210;5.158;2023-02-13T04:00:07;103674.16;;;7.56;76.00
65329;BME280;51941;52.210;5.158;2023-02-13T04:02:41;103672.09;;;7.50;76.26
65329;BME280;51941;52.210;5.158;2023-02-13T04:05:16;103661.13;;;7.45;76.16
65329;BME280;51941;52.210;5.158;2023-02-13T04:07:44;103668.34;;;7.53;76.32
65329;BME280;51941;52.210;5.158;2023-02-13T04:10:14;103672.63;;;7.54;76.42
65329;BME280;51941;52.210;5.158;2023-02-13T04:12:49;103642.69;;;7.36;76.55
65329;BME280;51941;52.210;5.158;2023-02-13T04:15:20;103673.31;;;7.56;76.49
65329;BME280;51941;52.210;5.158;2023-02-13T04:17:54;103676.94;;;7.55;76.46
65329;BME280;51941;52.210;5.158;2023-02-13T04:20:26;103662.38;;;7.51;76.41
65329;BME280;51941;52.210;5.158;2023-02-13T04:22:53;103679.16;;;7.59;76.35
65329;BME280;51941;52.210;5.158;2023-02-13T04:25:21;103673.88;;;7.59;76.19
65329;BME280;51941;52.210;5.158;2023-02-13T04:27:48;103671.25;;;7.59;76.29
65329;BME280;51941;52.210;5.158;2023-02-13T04:30:15;103666.38;;;7.55;76.56
65329;BME280;51941;52.210;5.158;2023-02-13T04:32:42;103659.75;;;7.51;76.61
65329;BME280;51941;52.210;5.158;2023-02-13T04:35:09;103634.78;;;7.36;76.38
65329;BME280;51941;52.210;5.158;2023-02-13T04:37:38;103660.84;;;7.58;76.90
65329;BME280;51941;52.210;5.158;2023-02-13T04:40:05;103671.13;;;7.61;76.71
65329;BME280;51941;52.210;5.158;2023-02-13T04:42:34;103672.63;;;7.63;76.84
65329;BME280;51941;52.210;5.158;2023-02-13T04:45:00;103668.88;;;7.66;76.73
65329;BME280;51941;52.210;5.158;2023-02-13T04:47:27;103626.34;;;7.42;76.68
65329;BME280;51941;52.210;5.158;2023-02-13T04:49:54;103666.50;;;7.63;77.01
65329;BME280;51941;52.210;5.158;2023-02-13T04:52:21;103652.09;;;7.57;77.02
65329;BME280;51941;52.210;5.158;2023-02-13T04:54:48;103661.69;;;7.58;76.96
65329;BME280;51941;52.210;5.158;2023-02-13T04:57:15;103659.19;;;7.57;77.12
65329;BME280;51941;52.210;5.158;2023-02-13T04:59:44;103657.25;;;7.59;77.19
65329;BME280;51941;52.210;5.158;2023-02-13T05:02:10;103648.91;;;7.54;77.24
65329;BME280;51941;52.210;5.158;2023-02-13T05:04:37;103653.06;;;7.56;77.51
65329;BME280;51941;52.210;5.158;2023-02-13T05:07:04;103657.25;;;7.59;77.23
65329;BME280;51941;52.210;5.158;2023-02-13T05:09:31;103644.75;;;7.61;77.43
65329;BME280;51941;52.210;5.158;2023-02-13T05:11:57;103618.97;;;7.45;77.39
65329;BME280;51941;52.210;5.158;2023-02-13T05:14:24;103643.09;;;7.60;77.43
65329;BME280;51941;52.210;5.158;2023-02-13T05:16:52;103618.56;;;7.50;77.72
65329;BME280;51941;52.210;5.158;2023-02-13T05:19:19;103647.53;;;7.59;77.45
65329;BME280;51941;52.210;5.158;2023-02-13T05:21:46;103643.09;;;7.60;77.55
65329;BME280;51941;52.210;5.158;2023-02-13T05:24:30;103648.34;;;7.60;77.71
65329;BME280;51941;52.210;5.158;2023-02-13T05:26:57;103640.16;;;7.63;77.49
65329;BME280;51941;52.210;5.158;2023-02-13T05:29:24;103647.09;;;7.64;77.64
65329;BME280;51941;52.210;5.158;2023-02-13T05:31:54;103636.53;;;7.64;77.51
65329;BME280;51941;52.210;5.158;2023-02-13T05:34:23;103647.66;;;7.67;77.35
65329;BME280;51941;52.210;5.158;2023-02-13T05:36:50;103652.50;;;7.62;77.84
65329;BME280;51941;52.210;5.158;2023-02-13T05:39:17;103651.13;;;7.58;77.76
65329;BME280;51941;52.210;5.158;2023-02-13T05:41:47;103643.91;;;7.60;77.87
65329;BME280;51941;52.210;5.158;2023-02-13T05:44:14;103644.59;;;7.62;77.98
65329;BME280;51941;52.210;5.158;2023-02-13T05:46:42;103651.53;;;7.63;77.83
65329;BME280;51941;52.210;5.158;2023-02-13T05:49:11;103645.28;;;7.64;77.97
65329;BME280;51941;52.210;5.158;2023-02-13T05:51:38;103654.84;;;7.65;77.94
65329;BME280;51941;52.210;5.158;2023-02-13T05:54:05;103651.94;;;7.68;77.58
65329;BME280;51941;52.210;5.158;2023-02-13T05:56:32;103644.19;;;7.67;77.91
65329;BME280;51941;52.210;5.158;2023-02-13T05:58:59;103651.63;;;7.72;77.83
65329;BME280;51941;52.210;5.158;2023-02-13T06:01:26;103651.50;;;7.73;77.83
65329;BME280;51941;52.210;5.158;2023-02-13T06:03:52;103651.50;;;7.73;77.86
65329;BME280;51941;52.210;5.158;2023-02-13T06:06:20;103613.28;;;7.50;77.72
65329;BME280;51941;52.210;5.158;2023-02-13T06:08:47;103649.69;;;7.74;77.79
65329;BME280;51941;52.210;5.158;2023-02-13T06:11:14;103660.38;;;7.72;77.99
65329;BME280;51941;52.210;5.158;2023-02-13T06:13:41;103642.50;;;7.66;77.92
65329;BME280;51941;52.210;5.158;2023-02-13T06:16:08;103650.16;;;7.69;78.33
65329;BME280;51941;52.210;5.158;2023-02-13T06:18:35;103647.50;;;7.69;78.17
65329;BME280;51941;52.210;5.158;2023-02-13T06:21:03;103648.47;;;7.68;78.42
65329;BME280;51941;52.210;5.158;2023-02-13T06:23:32;103639.03;;;7.65;78.33
65329;BME280;51941;52.210;5.158;2023-02-13T06:26:01;103653.31;;;7.73;78.38
65329;BME280;51941;52.210;5.158;2023-02-13T06:28:28;103661.78;;;7.76;78.13
65329;BME280;51941;52.210;5.158;2023-02-13T06:30:55;103647.75;;;7.76;78.21
65329;BME280;51941;52.210;5.158;2023-02-13T06:33:21;103613.16;;;7.51;78.28
65329;BME280;51941;52.210;5.158;2023-02-13T06:35:48;103657.47;;;7.75;78.29
65329;BME280;51941;52.210;5.158;2023-02-13T06:38:15;103647.19;;;7.72;78.28
65329;BME280;51941;52.210;5.158;2023-02-13T06:40:45;103649.69;;;7.74;78.34
65329;BME280;51941;52.210;5.158;2023-02-13T06:43:12;103658.88;;;7.79;78.49
65329;BME280;51941;52.210;5.158;2023-02-13T06:45:39;103657.84;;;7.80;78.19
65329;BME280;51941;52.210;5.158;2023-02-13T06:48:05;103606.47;;;7.47;78.37
65329;BME280;51941;52.210;5.158;2023-02-13T06:50:32;103614.38;;;7.57;78.07
65329;BME280;51941;52.210;5.158;2023-02-13T06:53:00;103654.13;;;7.83;78.42
65329;BME280;51941;52.210;5.158;2023-02-13T06:55:27;103642.72;;;7.82;78.03
65329;BME280;51941;52.210;5.158;2023-02-13T06:57:55;103646.75;;;7.86;77.99
65329;BME280;51941;52.210;5.158;2023-02-13T07:00:22;103645.38;;;7.82;78.37
65329;BME280;51941;52.210;5.158;2023-02-13T07:02:49;103621.28;;;7.67;77.87
65329;BME280;51941;52.210;5.158;2023-02-13T07:05:16;103594.84;;;7.50;77.68
65329;BME280;51941;52.210;5.158;2023-02-13T07:07:43;103655.19;;;7.90;77.97
65329;BME280;51941;52.210;5.158;2023-02-13T07:10:11;103655.19;;;7.90;78.03
65329;BME280;51941;52.210;5.158;2023-02-13T07:12:39;103650.06;;;7.88;78.07
65329;BME280;51941;52.210;5.158;2023-02-13T07:15:08;103653.53;;;7.89;77.96
65329;BME280;51941;52.210;5.158;2023-02-13T07:17:35;103661.75;;;7.86;77.88
65329;BME280;51941;52.210;5.158;2023-02-13T07:20:02;103660.47;;;7.90;77.91
65329;BME280;51941;52.210;5.158;2023-02-13T07:22:30;103660.91;;;7.85;77.93
65329;BME280;51941;52.210;5.158;2023-02-13T07:24:58;103625.72;;;7.67;78.10
65329;BME280;51941;52.210;5.158;2023-02-13T07:27:25;103609.22;;;7.55;78.04
65329;BME280;51941;52.210;5.158;2023-02-13T07:29:54;103662.00;;;7.92;78.57
65329;BME280;51941;52.210;5.158;2023-02-13T07:32:23;103668.09;;;7.93;78.50
65329;BME280;51941;52.210;5.158;2023-02-13T07:34:50;103670.28;;;7.97;78.29
65329;BME280;51941;52.210;5.158;2023-02-13T07:37:17;103665.72;;;7.99;78.07
65329;BME280;51941;52.210;5.158;2023-02-13T07:39:44;103669.06;;;8.01;77.99
65329;BME280;51941;52.210;5.158;2023-02-13T07:42:11;103676.00;;;8.02;77.88
65329;BME280;51941;52.210;5.158;2023-02-13T07:44:37;103671.00;;;7.99;77.80
65329;BME280;51941;52.210;5.158;2023-02-13T07:47:04;103677.09;;;8.00;78.38
65329;BME280;51941;52.210;5.158;2023-02-13T07:49:32;103681.41;;;8.01;78.60
65329;BME280;51941;52.210;5.158;2023-02-13T07:52:01;103679.84;;;8.08;78.25
65329;BME280;51941;52.210;5.158;2023-02-13T07:54:28;103680.41;;;8.12;78.04
65329;BME280;51941;52.210;5.158;2023-02-13T07:56:55;103689.00;;;8.14;78.14
65329;BME280;51941;52.210;5.158;2023-02-13T07:59:22;103693.69;;;8.20;77.87
65329;BME280;51941;52.210;5.158;2023-02-13T08:01:49;103663.06;;;7.99;78.23
65329;BME280;51941;52.210;5.158;2023-02-13T08:04:15;103686.47;;;8.22;78.04
65329;BME280;51941;52.210;5.158;2023-02-13T08:06:44;103689.94;;;8.22;78.05
65329;BME280;51941;52.210;5.158;2023-02-13T08:09:17;103695.19;;;8.32;78.25
65329;BME280;51941;52.210;5.158;2023-02-13T08:12:02;103697.38;;;8.36;78.24
65329;BME280;51941;52.210;5.158;2023-02-13T08:14:29;103708.63;;;8.38;78.43
65329;BME280;51941;52.210;5.158;2023-02-13T08:16:57;103705.25;;;8.46;78.29
65329;BME280;51941;52.210;5.158;2023-02-13T08:19:25;103700.94;;;8.45;78.19
65329;BME280;51941;52.210;5.158;2023-02-13T08:21:53;103705.06;;;8.57;77.88
65329;BME280;51941;52.210;5.158;2023-02-13T08:24:20;103702.66;;;8.64;77.71
65329;BME280;51941;52.210;5.158;2023-02-13T08:26:47;103707.06;;;8.73;77.65
65329;BME280;51941;52.210;5.158;2023-02-13T08:29:13;103676.69;;;8.59;77.81
65329;BME280;51941;52.210;5.158;2023-02-13T08:31:40;103698.94;;;8.84;77.81
65329;BME280;51941;52.210;5.158;2023-02-13T08:34:08;103707.44;;;8.96;77.55
65329;BME280;51941;52.210;5.158;2023-02-13T08:36:35;103700.56;;;9.03;77.40
65329;BME280;51941;52.210;5.158;2023-02-13T08:39:03;103703.53;;;9.00;77.27
65329;BME280;51941;52.210;5.158;2023-02-13T08:41:29;103696.44;;;9.00;77.21
65329;BME280;51941;52.210;5.158;2023-02-13T08:43:56;103696.22;;;8.94;77.05
65329;BME280;51941;52.210;5.158;2023-02-13T08:46:23;103702.47;;;8.93;77.05
65329;BME280;51941;52.210;5.158;2023-02-13T08:48:50;103708.00;;;8.99;77.18
65329;BME280;51941;52.210;5.158;2023-02-13T08:51:17;103671.50;;;8.85;77.24
65329;BME280;51941;52.210;5.158;2023-02-13T08:53:43;103702.03;;;9.15;77.34
65329;BME280;51941;52.210;5.158;2023-02-13T08:56:12;103703.19;;;9.30;77.14
65329;BME280;51941;52.210;5.158;2023-02-13T08:58:38;103697.59;;;9.33;76.60
65329;BME280;51941;52.210;5.158;2023-02-13T09:01:06;103692.31;;;9.33;76.43
65329;BME280;51941;52.210;5.158;2023-02-13T09:03:34;103685.66;;;9.29;76.41
65329;BME280;51941;52.210;5.158;2023-02-13T09:06:01;103693.81;;;9.36;76.16
65329;BME280;51941;52.210;5.158;2023-02-13T09:08:28;103709.75;;;9.44;76.26
65329;BME280;51941;52.210;5.158;2023-02-13T09:10:56;103706.34;;;9.51;76.27
65329;BME280;51941;52.210;5.158;2023-02-13T09:13:24;103711.47;;;9.53;76.33
65329;BME280;51941;52.210;5.158;2023-02-13T09:15:51;103702.09;;;9.59;76.14
65329;BME280;51941;52.210;5.158;2023-02-13T09:18:18;103690.88;;;9.65;76.27
65329;BME280;51941;52.210;5.158;2023-02-13T09:20:45;103663.56;;;9.56;75.96
65329;BME280;51941;52.210;5.158;2023-02-13T09:23:12;103699.78;;;9.81;75.95
65329;BME280;51941;52.210;5.158;2023-02-13T09:25:38;103698.97;;;9.81;75.73
65329;BME280;51941;52.210;5.158;2023-02-13T09:28:05;103697.94;;;9.82;75.64
65329;BME280;51941;52.210;5.158;2023-02-13T09:30:33;103703.63;;;9.87;75.55
65329;BME280;51941;52.210;5.158;2023-02-13T09:33:00;103693.88;;;9.87;75.31
65329;BME280;51941;52.210;5.158;2023-02-13T09:35:27;103697.66;;;9.85;75.32
65329;BME280;51941;52.210;5.158;2023-02-13T09:37:54;103699.59;;;9.83;75.21
65329;BME280;51941;52.210;5.158;2023-02-13T09:40:26;103698.63;;;9.84;75.09
65329;BME280;51941;52.210;5.158;2023-02-13T09:43:04;103700.50;;;9.91;75.14
65329;BME280;51941;52.210;5.158;2023-02-13T09:45:34;103695.88;;;9.93;74.69
65329;BME280;51941;52.210;5.158;2023-02-13T09:48:03;103692.00;;;10.06;74.63
65329;BME280;51941;52.210;5.158;2023-02-13T09:50:31;103700.13;;;10.12;74.42
65329;BME280;51941;52.210;5.158;2023-02-13T09:53:01;103692.03;;;10.14;74.04
65329;BME280;51941;52.210;5.158;2023-02-13T09:55:33;103693.72;;;10.23;73.78
65329;BME280;51941;52.210;5.158;2023-02-13T09:58:08;103693.25;;;10.27;73.45
65329;BME280;51941;52.210;5.158;2023-02-13T10:00:42;103665.09;;;10.26;73.65
65329;BME280;51941;52.210;5.158;2023-02-13T10:03:18;103683.72;;;10.43;73.08
65329;BME280;51941;52.210;5.158;2023-02-13T10:05:52;103684.59;;;10.51;72.94
65329;BME280;51941;52.210;5.158;2023-02-13T10:08:40;103684.91;;;10.56;72.73
65329;BME280;51941;52.210;5.158;2023-02-13T10:11:23;103689.03;;;10.51;72.08
65329;BME280;51941;52.210;5.158;2023-02-13T10:14:01;103628.81;;;10.11;72.01
65329;BME280;51941;52.210;5.158;2023-02-13T10:16:35;103685.31;;;10.36;71.83
65329;BME280;51941;52.210;5.158;2023-02-13T10:19:13;103683.66;;;10.35;72.16
65329;BME280;51941;52.210;5.158;2023-02-13T10:21:45;103684.19;;;10.38;72.49
65329;BME280;51941;52.210;5.158;2023-02-13T10:24:23;103685.53;;;10.42;72.52
65329;BME280;51941;52.210;5.158;2023-02-13T10:26:53;103683.88;;;10.41;72.19
65329;BME280;51941;52.210;5.158;2023-02-13T10:29:24;103684.03;;;10.40;72.25
65329;BME280;51941;52.210;5.158;2023-02-13T10:32:16;103685.69;;;10.41;72.38
65329;BME280;51941;52.210;5.158;2023-02-13T10:34:45;103676.75;;;10.42;72.34
65329;BME280;51941;52.210;5.158;2023-02-13T10:37:14;103677.75;;;10.41;72.31
65329;BME280;51941;52.210;5.158;2023-02-13T10:39:44;103665.81;;;10.37;72.02
65329;BME280;51941;52.210;5.158;2023-02-13T10:42:19;103669.66;;;10.42;72.06
65329;BME280;51941;52.210;5.158;2023-02-13T10:45:02;103649.56;;;10.23;72.10
65329;BME280;51941;52.210;5.158;2023-02-13T10:47:47;103674.44;;;10.39;71.84
65329;BME280;51941;52.210;5.158;2023-02-13T10:50:23;103666.47;;;10.39;71.84
65329;BME280;51941;52.210;5.158;2023-02-13T10:53:01;103666.66;;;10.45;71.90
65329;BME280;51941;52.210;5.158;2023-02-13T10:56:04;103660.25;;;10.56;71.67
65329;BME280;51941;52.210;5.158;2023-02-13T10:58:46;103669.19;;;10.63;71.40
65329;BME280;51941;52.210;5.158;2023-02-13T11:01:19;103663.91;;;10.63;71.38
65329;BME280;51941;52.210;5.158;2023-02-13T11:04:00;103643.66;;;10.46;71.16
65329;BME280;51941;52.210;5.158;2023-02-13T11:06:29;103659.94;;;10.59;71.28
65329;BME280;51941;52.210;5.158;2023-02-13T11:08:56;103662.25;;;10.62;71.53
65329;BME280;51941;52.210;5.158;2023-02-13T11:11:31;103651.84;;;10.60;71.31
65329;BME280;51941;52.210;5.158;2023-02-13T11:14:16;103653.97;;;10.65;71.22
65329;BME280;51941;52.210;5.158;2023-02-13T11:16:54;103658.63;;;10.71;70.79
65329;BME280;51941;52.210;5.158;2023-02-13T11:19:28;103654.53;;;10.77;70.97
65329;BME280;51941;52.210;5.158;2023-02-13T11:21:58;103651.91;;;10.93;71.07
65329;BME280;51941;52.210;5.158;2023-02-13T11:24:28;103646.28;;;11.04;70.96
65329;BME280;51941;52.210;5.158;2023-02-13T11:27:01;103645.28;;;11.05;70.30
65329;BME280;51941;52.210;5.158;2023-02-13T11:29:32;103637.16;;;11.15;70.26
65329;BME280;51941;52.210;5.158;2023-02-13T11:32:06;103587.31;;;10.94;69.59
65329;BME280;51941;52.210;5.158;2023-02-13T11:34:38;103630.69;;;11.33;69.25
65329;BME280;51941;52.210;5.158;2023-02-13T11:37:17;103635.50;;;11.38;68.86
65329;BME280;51941;52.210;5.158;2023-02-13T11:39:46;103623.56;;;11.42;69.07
65329;BME280;51941;52.210;5.158;2023-02-13T11:42:14;103623.38;;;11.52;69.07
65329;BME280;51941;52.210;5.158;2023-02-13T11:44:47;103606.31;;;11.54;68.66
65329;BME280;51941;52.210;5.158;2023-02-13T11:47:14;103616.38;;;11.67;68.99
65329;BME280;51941;52.210;5.158;2023-02-13T11:49:46;103618.38;;;11.65;68.03
65329;BME280;51941;52.210;5.158;2023-02-13T11:52:22;103610.09;;;11.60;68.12
65329;BME280;51941;52.210;5.158;2023-02-13T11:54:55;103607.78;;;11.57;68.46
65329;BME280;51941;52.210;5.158;2023-02-13T11:57:27;103605.47;;;11.54;67.92
65329;BME280;51941;52.210;5.158;2023-02-13T11:59:56;103607.28;;;11.61;68.35
65329;BME280;51941;52.210;5.158;2023-02-13T12:02:24;103600.66;;;11.49;67.33
65329;BME280;51941;52.210;5.158;2023-02-13T12:04:54;103598.19;;;11.56;67.82
65329;BME280;51941;52.210;5.158;2023-02-13T12:07:24;103600.66;;;11.57;68.08
65329;BME280;51941;52.210;5.158;2023-02-13T12:09:56;103594.34;;;11.58;67.87
65329;BME280;51941;52.210;5.158;2023-02-13T12:12:31;103595.66;;;11.62;67.96
65329;BME280;51941;52.210;5.158;2023-02-13T12:15:01;103584.38;;;11.60;67.99
65329;BME280;51941;52.210;5.158;2023-02-13T12:17:30;103570.47;;;11.50;68.13
65329;BME280;51941;52.210;5.158;2023-02-13T12:19:59;103590.53;;;11.61;67.69
65329;BME280;51941;52.210;5.158;2023-02-13T12:22:31;103597.78;;;11.67;67.59
65329;BME280;51941;52.210;5.158;2023-02-13T12:28:09;103589.00;;;11.74;67.27
65329;BME280;51941;52.210;5.158;2023-02-13T12:31:00;103586.53;;;11.73;67.10
65329;BME280;51941;52.210;5.158;2023-02-13T12:33:49;103582.66;;;11.75;67.04
65329;BME280;51941;52.210;5.158;2023-02-13T12:36:24;103580.22;;;11.74;66.93
65329;BME280;51941;52.210;5.158;2023-02-13T12:39:01;103560.19;;;11.63;66.82
65329;BME280;51941;52.210;5.158;2023-02-13T12:41:37;103578.84;;;11.78;67.08
65329;BME280;51941;52.210;5.158;2023-02-13T12:44:31;103583.00;;;11.80;66.92
65329;BME280;51941;52.210;5.158;2023-02-13T12:47:12;103580.34;;;11.80;66.51
65329;BME280;51941;52.210;5.158;2023-02-13T12:50:02;103571.41;;;11.81;66.64
65329;BME280;51941;52.210;5.158;2023-02-13T12:52:41;103564.44;;;11.80;66.69
65329;BME280;51941;52.210;5.158;2023-02-13T12:55:21;103566.75;;;11.84;66.31
65329;BME280;51941;52.210;5.158;2023-02-13T12:58:04;103566.72;;;11.92;66.62
65329;BME280;51941;52.210;5.158;2023-02-13T13:00:46;103569.81;;;11.95;66.43
65329;BME280;51941;52.210;5.158;2023-02-13T13:03:33;103514.09;;;11.64;66.08
65329;BME280;51941;52.210;5.158;2023-02-13T13:06:29;103565.31;;;12.04;66.54
65329;BME280;51941;52.210;5.158;2023-02-13T13:09:25;103561.97;;;12.10;66.57
65329;BME280;51941;52.210;5.158;2023-02-13T13:12:16;103556.66;;;12.10;66.08
65329;BME280;51941;52.210;5.158;2023-02-13T13:14:53;103553.34;;;12.08;65.96
65329;BME280;51941;52.210;5.158;2023-02-13T13:17:30;103545.38;;;12.08;66.11
65329;BME280;51941;52.210;5.158;2023-02-13T13:20:04;103550.31;;;12.11;66.14
65329;BME280;51941;52.210;5.158;2023-02-13T13:22:40;103542.72;;;12.16;66.30
65329;BME280;51941;52.210;5.158;2023-02-13T13:25:17;103538.88;;;12.18;65.98
65329;BME280;51941;52.210;5.158;2023-02-13T13:27:50;103534.41;;;12.19;66.12
65329;BME280;51941;52.210;5.158;2023-02-13T13:30:21;103530.09;;;12.18;65.90
65329;BME280;51941;52.210;5.158;2023-02-13T13:32:54;103530.72;;;12.20;66.18